sensor_id;sensor_type;location;lat;lon;timestamp;temperature;humidity
44190;DHT22;29856;52.144;5.430;2023-02-24T00:00:07;6.10;99.90
44190;DHT22;29856;52.144;5.430;2023-02-24T00:02:33;6.20;99.90
44190;DHT22;29856;52.144;5.430;2023-02-24T00:04:58;6.30;99.90
44190;DHT22;29856;52.144;5.430;2023-02-24T00:07:24;6.30;99.90
44190;DHT22;29856;52.144;5.430;2023-02-24T00:09:49;6.30;99.90
44190;DHT22;29856;52.144;5.430;2023-02-24T00:12:15;6.40;99.90
44190;DHT22;29856;52.144;5.430;2023-02-24T00:14:43;6.50;99.90
44190;DHT22;29856;52.144;5.430;2023-02-24T00:17:10;6.40;99.90
44190;DHT22;29856;52.144;5.430;2023-02-24T00:19:36;6.40;99.90
44190;DHT22;29856;52.144;5.430;2023-02-24T00:22:04;6.30;99.90
44190;DHT22;29856;52.144;5.430;2023-02-24T00:24:30;6.20;99.90
44190;DHT22;29856;52.144;5.430;2023-02-24T00:27:00;6.20;99.90
44190;DHT22;29856;52.144;5.430;2023-02-24T00:29:28;6.30;99.90
44190;DHT22;29856;52.144;5.430;2023-02-24T00:31:55;6.40;99.90
44190;DHT22;29856;52.144;5.430;2023-02-24T00:34:21;6.40;99.90
44190;DHT22;29856;52.144;5.430;2023-02-24T00:36:48;6.30;99.90
44190;DHT22;29856;52.144;5.430;2023-02-24T00:39:13;6.40;99.90
44190;DHT22;29856;52.144;5.430;2023-02-24T00:41:41;6.40;99.90
44190;DHT22;29856;52.144;5.430;2023-02-24T00:44:09;6.50;99.90
44190;DHT22;29856;52.144;5.430;2023-02-24T00:46:44;6.40;99.90
44190;DHT22;29856;52.144;5.430;2023-02-24T00:49:15;6.50;99.90
44190;DHT22;29856;52.144;5.430;2023-02-24T00:51:46;6.50;99.90
44190;DHT22;29856;52.144;5.430;2023-02-24T00:54:12;6.50;99.90
44190;DHT22;29856;52.144;5.430;2023-02-24T00:56:40;6.40;99.90
44190;DHT22;29856;52.144;5.430;2023-02-24T00:59:06;6.50;99.90
44190;DHT22;29856;52.144;5.430;2023-02-24T01:01:32;6.50;99.90
44190;DHT22;29856;52.144;5.430;2023-02-24T01:04:02;6.50;99.90
44190;DHT22;29856;52.144;5.430;2023-02-24T01:06:28;6.40;99.90
44190;DHT22;29856;52.144;5.430;2023-02-24T01:09:03;6.30;99.90
44190;DHT22;29856;52.144;5.430;2023-02-24T01:11:32;6.20;99.90
44190;DHT22;29856;52.144;5.430;2023-02-24T01:13:59;6.30;99.90
44190;DHT22;29856;52.144;5.430;2023-02-24T01:16:25;6.40;99.90
44190;DHT22;29856;52.144;5.430;2023-02-24T01:18:50;6.40;99.90
44190;DHT22;29856;52.144;5.430;2023-02-24T01:21:18;6.20;99.90
44190;DHT22;29856;52.144;5.430;2023-02-24T01:23:48;6.30;99.90
44190;DHT22;29856;52.144;5.430;2023-02-24T01:26:14;6.40;99.90
44190;DHT22;29856;52.144;5.430;2023-02-24T01:28:41;6.40;99.90
44190;DHT22;29856;52.144;5.430;2023-02-24T01:31:06;6.30;99.90
44190;DHT22;29856;52.144;5.430;2023-02-24T01:33:33;6.30;99.90
44190;DHT22;29856;52.144;5.430;2023-02-24T01:36:13;6.30;99.90
44190;DHT22;29856;52.144;5.430;2023-02-24T01:38:40;6.30;99.90
44190;DHT22;29856;52.144;5.430;2023-02-24T01:41:05;6.30;99.90
44190;DHT22;29856;52.144;5.430;2023-02-24T01:43:32;6.20;99.90
44190;DHT22;29856;52.144;5.430;2023-02-24T01:45:57;6.20;99.90
44190;DHT22;29856;52.144;5.430;2023-02-24T01:48:23;6.20;99.90
44190;DHT22;29856;52.144;5.430;2023-02-24T01:50:50;6.10;99.90
44190;DHT22;29856;52.144;5.430;2023-02-24T01:53:17;6.10;99.90
44190;DHT22;29856;52.144;5.430;2023-02-24T01:55:44;6.10;99.90
44190;DHT22;29856;52.144;5.430;2023-02-24T01:58:32;6.10;99.90
44190;DHT22;29856;52.144;5.430;2023-02-24T02:00:58;6.10;99.90
44190;DHT22;29856;52.144;5.430;2023-02-24T02:03:30;6.10;99.90
44190;DHT22;29856;52.144;5.430;2023-02-24T02:06:06;6.10;99.90
44190;DHT22;29856;52.144;5.430;2023-02-24T02:08:34;6.10;99.90
44190;DHT22;29856;52.144;5.430;2023-02-24T02:11:04;6.20;99.90
44190;DHT22;29856;52.144;5.430;2023-02-24T02:13:30;6.20;99.90
44190;DHT22;29856;52.144;5.430;2023-02-24T02:18:41;6.20;99.90
44190;DHT22;29856;52.144;5.430;2023-02-24T02:21:41;6.10;99.90
44190;DHT22;29856;52.144;5.430;2023-02-24T02:37:35;5.60;99.90
44190;DHT22;29856;52.144;5.430;2023-02-24T02:40:20;5.60;99.90
44190;DHT22;29856;52.144;5.430;2023-02-24T02:43:01;5.70;99.90
44190;DHT22;29856;52.144;5.430;2023-02-24T02:45:39;5.60;99.90
44190;DHT22;29856;52.144;5.430;2023-02-24T02:48:18;5.70;99.90
44190;DHT22;29856;52.144;5.430;2023-02-24T02:50:56;5.60;99.90
44190;DHT22;29856;52.144;5.430;2023-02-24T02:53:51;5.60;99.90
44190;DHT22;29856;52.144;5.430;2023-02-24T02:56:25;5.40;99.90
44190;DHT22;29856;52.144;5.430;2023-02-24T02:58:53;5.40;99.90
44190;DHT22;29856;52.144;5.430;2023-02-24T03:01:24;5.20;99.90
44190;DHT22;29856;52.144;5.430;2023-02-24T03:03:54;5.10;99.90
44190;DHT22;29856;52.144;5.430;2023-02-24T03:06:25;5.20;99.90
44190;DHT22;29856;52.144;5.430;2023-02-24T03:09:08;5.00;99.90
44190;DHT22;29856;52.144;5.430;2023-02-24T03:11:34;5.10;99.90
44190;DHT22;29856;52.144;5.430;2023-02-24T03:14:00;5.10;99.90
44190;DHT22;29856;52.144;5.430;2023-02-24T03:16:26;5.20;99.90
44190;DHT22;29856;52.144;5.430;2023-02-24T03:19:01;5.10;99.90
44190;DHT22;29856;52.144;5.430;2023-02-24T03:21:37;5.00;99.90
44190;DHT22;29856;52.144;5.430;2023-02-24T03:24:04;5.10;99.90
44190;DHT22;29856;52.144;5.430;2023-02-24T03:26:55;5.10;99.90
44190;DHT22;29856;52.144;5.430;2023-02-24T03:29:59;5.00;99.90
44190;DHT22;29856;52.144;5.430;2023-02-24T03:32:31;5.10;99.90
44190;DHT22;29856;52.144;5.430;2023-02-24T03:35:31;5.00;99.90
44190;DHT22;29856;52.144;5.430;2023-02-24T03:37:58;5.10;99.90
44190;DHT22;29856;52.144;5.430;2023-02-24T03:40:24;5.20;99.90
44190;DHT22;29856;52.144;5.430;2023-02-24T03:42:56;5.10;99.90
44190;DHT22;29856;52.144;5.430;2023-02-24T03:45:24;5.30;99.90
44190;DHT22;29856;52.144;5.430;2023-02-24T03:47:50;5.30;99.90
44190;DHT22;29856;52.144;5.430;2023-02-24T03:50:17;5.30;99.90
44190;DHT22;29856;52.144;5.430;2023-02-24T03:55:20;5.30;99.90
44190;DHT22;29856;52.144;5.430;2023-02-24T04:00:37;5.20;99.90
44190;DHT22;29856;52.144;5.430;2023-02-24T04:03:18;5.30;99.90
44190;DHT22;29856;52.144;5.430;2023-02-24T04:05:58;5.10;99.90
44190;DHT22;29856;52.144;5.430;2023-02-24T04:08:26;5.20;99.90
44190;DHT22;29856;52.144;5.430;2023-02-24T04:11:03;5.20;99.90
44190;DHT22;29856;52.144;5.430;2023-02-24T04:13:37;5.20;99.90
44190;DHT22;29856;52.144;5.430;2023-02-24T04:16:33;5.30;99.90
44190;DHT22;29856;52.144;5.430;2023-02-24T04:19:03;5.40;99.90
44190;DHT22;29856;52.144;5.430;2023-02-24T04:21:31;5.20;99.90
44190;DHT22;29856;52.144;5.430;2023-02-24T04:24:03;5.30;99.90
44190;DHT22;29856;52.144;5.430;2023-02-24T04:26:29;5.20;99.90
44190;DHT22;29856;52.144;5.430;2023-02-24T04:28:56;5.00;99.90
44190;DHT22;29856;52.144;5.430;2023-02-24T04:31:23;5.00;99.90
44190;DHT22;29856;52.144;5.430;2023-02-24T04:33:49;5.00;99.90
44190;DHT22;29856;52.144;5.430;2023-02-24T04:36:19;5.10;99.90
44190;DHT22;29856;52.144;5.430;2023-02-24T04:38:45;5.10;99.90
44190;DHT22;29856;52.144;5.430;2023-02-24T04:41:12;5.00;99.90
44190;DHT22;29856;52.144;5.430;2023-02-24T04:43:38;4.90;99.90
44190;DHT22;29856;52.144;5.430;2023-02-24T04:46:03;4.80;99.90
44190;DHT22;29856;52.144;5.430;2023-02-24T04:48:28;4.80;99.90
44190;DHT22;29856;52.144;5.430;2023-02-24T04:50:54;4.80;99.90
44190;DHT22;29856;52.144;5.430;2023-02-24T04:53:20;4.80;99.90
44190;DHT22;29856;52.144;5.430;2023-02-24T04:55:46;4.90;99.90
44190;DHT22;29856;52.144;5.430;2023-02-24T04:58:15;4.90;99.90
44190;DHT22;29856;52.144;5.430;2023-02-24T05:00:40;5.00;99.90
44190;DHT22;29856;52.144;5.430;2023-02-24T05:03:07;4.90;99.90
44190;DHT22;29856;52.144;5.430;2023-02-24T05:05:34;4.90;99.90
44190;DHT22;29856;52.144;5.430;2023-02-24T05:10:26;4.90;99.90
44190;DHT22;29856;52.144;5.430;2023-02-24T05:12:56;4.90;99.90
44190;DHT22;29856;52.144;5.430;2023-02-24T05:15:21;4.90;99.90
44190;DHT22;29856;52.144;5.430;2023-02-24T05:17:47;5.00;99.90
44190;DHT22;29856;52.144;5.430;2023-02-24T05:20:12;5.00;99.90
44190;DHT22;29856;52.144;5.430;2023-02-24T05:22:38;4.90;99.90
44190;DHT22;29856;52.144;5.430;2023-02-24T05:25:03;4.90;99.90
44190;DHT22;29856;52.144;5.430;2023-02-24T05:27:29;4.90;99.90
44190;DHT22;29856;52.144;5.430;2023-02-24T05:29:55;4.90;99.90
44190;DHT22;29856;52.144;5.430;2023-02-24T05:32:20;5.00;99.90
44190;DHT22;29856;52.144;5.430;2023-02-24T05:34:46;4.90;99.90
44190;DHT22;29856;52.144;5.430;2023-02-24T05:37:11;4.90;99.90
44190;DHT22;29856;52.144;5.430;2023-02-24T05:39:37;4.90;99.90
44190;DHT22;29856;52.144;5.430;2023-02-24T05:42:03;4.90;99.90
44190;DHT22;29856;52.144;5.430;2023-02-24T05:44:28;4.90;99.90
44190;DHT22;29856;52.144;5.430;2023-02-24T05:46:55;4.90;99.90
44190;DHT22;29856;52.144;5.430;2023-02-24T05:49:23;4.90;99.90
44190;DHT22;29856;52.144;5.430;2023-02-24T05:51:50;4.80;99.90
44190;DHT22;29856;52.144;5.430;2023-02-24T05:54:16;4.80;99.90
44190;DHT22;29856;52.144;5.430;2023-02-24T05:56:41;4.90;99.90
44190;DHT22;29856;52.144;5.430;2023-02-24T05:59:08;4.90;99.90
44190;DHT22;29856;52.144;5.430;2023-02-24T06:01:37;5.00;99.90
44190;DHT22;29856;52.144;5.430;2023-02-24T06:04:05;5.10;99.90
44190;DHT22;29856;52.144;5.430;2023-02-24T06:06:35;5.10;99.90
44190;DHT22;29856;52.144;5.430;2023-02-24T06:09:06;5.00;99.90
44190;DHT22;29856;52.144;5.430;2023-02-24T06:11:32;5.10;99.90
44190;DHT22;29856;52.144;5.430;2023-02-24T06:13:58;5.10;99.90
44190;DHT22;29856;52.144;5.430;2023-02-24T06:16:24;5.00;99.90
44190;DHT22;29856;52.144;5.430;2023-02-24T06:18:49;5.00;99.90
44190;DHT22;29856;52.144;5.430;2023-02-24T06:21:14;5.00;99.90
44190;DHT22;29856;52.144;5.430;2023-02-24T06:23:40;5.00;99.90
44190;DHT22;29856;52.144;5.430;2023-02-24T06:26:06;5.00;99.90
44190;DHT22;29856;52.144;5.430;2023-02-24T06:28:31;5.00;99.90
44190;DHT22;29856;52.144;5.430;2023-02-24T06:30:57;5.00;99.90
44190;DHT22;29856;52.144;5.430;2023-02-24T06:33:23;4.90;99.90
44190;DHT22;29856;52.144;5.430;2023-02-24T06:35:49;5.00;99.90
44190;DHT22;29856;52.144;5.430;2023-02-24T06:38:14;5.10;99.90
44190;DHT22;29856;52.144;5.430;2023-02-24T06:40:40;5.00;99.90
44190;DHT22;29856;52.144;5.430;2023-02-24T06:43:07;5.10;99.90
44190;DHT22;29856;52.144;5.430;2023-02-24T06:45:34;5.10;99.90
44190;DHT22;29856;52.144;5.430;2023-02-24T06:47:59;5.00;99.90
44190;DHT22;29856;52.144;5.430;2023-02-24T06:50:25;5.00;99.90
44190;DHT22;29856;52.144;5.430;2023-02-24T06:52:54;5.00;99.90
44190;DHT22;29856;52.144;5.430;2023-02-24T06:55:20;5.00;99.90
44190;DHT22;29856;52.144;5.430;2023-02-24T06:57:46;5.10;99.90
44190;DHT22;29856;52.144;5.430;2023-02-24T07:00:12;5.20;99.90
44190;DHT22;29856;52.144;5.430;2023-02-24T07:02:39;5.20;99.90
44190;DHT22;29856;52.144;5.430;2023-02-24T07:05:05;5.20;99.90
44190;DHT22;29856;52.144;5.430;2023-02-24T07:07:30;5.10;99.90
44190;DHT22;29856;52.144;5.430;2023-02-24T07:09:56;5.10;99.90
44190;DHT22;29856;52.144;5.430;2023-02-24T07:12:21;5.00;99.90
44190;DHT22;29856;52.144;5.430;2023-02-24T07:14:47;5.00;99.90
44190;DHT22;29856;52.144;5.430;2023-02-24T07:17:12;5.00;99.90
44190;DHT22;29856;52.144;5.430;2023-02-24T07:19:38;5.00;99.90
44190;DHT22;29856;52.144;5.430;2023-02-24T07:22:03;5.00;99.90
44190;DHT22;29856;52.144;5.430;2023-02-24T07:24:32;5.00;99.90
44190;DHT22;29856;52.144;5.430;2023-02-24T07:27:00;5.00;99.90
44190;DHT22;29856;52.144;5.430;2023-02-24T07:29:27;5.00;99.90
44190;DHT22;29856;52.144;5.430;2023-02-24T07:31:53;5.10;99.90
44190;DHT22;29856;52.144;5.430;2023-02-24T07:34:20;5.00;99.90
44190;DHT22;29856;52.144;5.430;2023-02-24T07:36:46;5.10;99.90
44190;DHT22;29856;52.144;5.430;2023-02-24T07:39:11;5.10;99.90
44190;DHT22;29856;52.144;5.430;2023-02-24T07:41:37;5.00;99.90
44190;DHT22;29856;52.144;5.430;2023-02-24T07:44:02;5.10;99.90
44190;DHT22;29856;52.144;5.430;2023-02-24T07:46:28;5.20;99.90
44190;DHT22;29856;52.144;5.430;2023-02-24T07:48:56;5.10;99.90
44190;DHT22;29856;52.144;5.430;2023-02-24T07:51:24;5.10;99.90
44190;DHT22;29856;52.144;5.430;2023-02-24T07:53:52;5.10;99.90
44190;DHT22;29856;52.144;5.430;2023-02-24T07:56:20;5.20;99.90
44190;DHT22;29856;52.144;5.430;2023-02-24T07:58:47;5.30;99.90
44190;DHT22;29856;52.144;5.430;2023-02-24T08:01:13;5.30;99.90
44190;DHT22;29856;52.144;5.430;2023-02-24T08:03:38;5.40;99.90
44190;DHT22;29856;52.144;5.430;2023-02-24T08:06:04;5.40;99.90
44190;DHT22;29856;52.144;5.430;2023-02-24T08:08:29;5.40;99.90
44190;DHT22;29856;52.144;5.430;2023-02-24T08:10:55;5.50;99.90
44190;DHT22;29856;52.144;5.430;2023-02-24T08:13:20;5.40;99.90
44190;DHT22;29856;52.144;5.430;2023-02-24T08:15:46;5.50;99.90
44190;DHT22;29856;52.144;5.430;2023-02-24T08:18:11;5.50;99.90
44190;DHT22;29856;52.144;5.430;2023-02-24T08:20:37;5.50;99.90
44190;DHT22;29856;52.144;5.430;2023-02-24T08:23:02;5.50;99.90
44190;DHT22;29856;52.144;5.430;2023-02-24T08:25:28;5.60;99.90
44190;DHT22;29856;52.144;5.430;2023-02-24T08:27:54;5.60;99.90
44190;DHT22;29856;52.144;5.430;2023-02-24T08:30:19;5.60;99.90
44190;DHT22;29856;52.144;5.430;2023-02-24T08:32:45;5.60;99.90
44190;DHT22;29856;52.144;5.430;2023-02-24T08:35:15;5.60;99.90
44190;DHT22;29856;52.144;5.430;2023-02-24T08:37:46;5.60;99.90
44190;DHT22;29856;52.144;5.430;2023-02-24T08:40:46;5.60;99.90
44190;DHT22;29856;52.144;5.430;2023-02-24T08:43:08;5.60;99.90
44190;DHT22;29856;52.144;5.430;2023-02-24T08:45:33;5.70;99.90
44190;DHT22;29856;52.144;5.430;2023-02-24T08:47:59;5.70;99.90
44190;DHT22;29856;52.144;5.430;2023-02-24T08:50:26;5.60;99.90
44190;DHT22;29856;52.144;5.430;2023-02-24T08:52:52;5.70;99.90
44190;DHT22;29856;52.144;5.430;2023-02-24T08:55:17;5.70;99.90
44190;DHT22;29856;52.144;5.430;2023-02-24T08:57:43;5.70;99.90
44190;DHT22;29856;52.144;5.430;2023-02-24T09:00:09;5.70;99.90
44190;DHT22;29856;52.144;5.430;2023-02-24T09:02:34;5.70;99.90
44190;DHT22;29856;52.144;5.430;2023-02-24T09:05:03;5.70;99.90
44190;DHT22;29856;52.144;5.430;2023-02-24T09:07:38;5.80;99.90
44190;DHT22;29856;52.144;5.430;2023-02-24T09:10:07;5.90;99.90
44190;DHT22;29856;52.144;5.430;2023-02-24T09:12:32;5.80;99.90
44190;DHT22;29856;52.144;5.430;2023-02-24T09:15:03;5.90;99.90
44190;DHT22;29856;52.144;5.430;2023-02-24T09:17:29;5.90;99.90
44190;DHT22;29856;52.144;5.430;2023-02-24T09:19:55;5.90;99.90
44190;DHT22;29856;52.144;5.430;2023-02-24T09:22:24;6.00;99.90
44190;DHT22;29856;52.144;5.430;2023-02-24T09:24:50;6.00;99.90
44190;DHT22;29856;52.144;5.430;2023-02-24T09:27:15;6.10;99.90
44190;DHT22;29856;52.144;5.430;2023-02-24T09:29:41;6.10;99.90
44190;DHT22;29856;52.144;5.430;2023-02-24T09:32:07;6.10;99.90
44190;DHT22;29856;52.144;5.430;2023-02-24T09:34:35;6.20;99.90
44190;DHT22;29856;52.144;5.430;2023-02-24T09:37:01;6.30;99.90
44190;DHT22;29856;52.144;5.430;2023-02-24T09:39:35;6.20;99.90
44190;DHT22;29856;52.144;5.430;2023-02-24T09:42:00;6.30;99.90
44190;DHT22;29856;52.144;5.430;2023-02-24T09:52:15;6.10;99.90
44190;DHT22;29856;52.144;5.430;2023-02-24T09:54:49;6.20;99.90
44190;DHT22;29856;52.144;5.430;2023-02-24T09:57:20;6.20;99.90
44190;DHT22;29856;52.144;5.430;2023-02-24T09:59:56;6.20;99.90
44190;DHT22;29856;52.144;5.430;2023-02-24T10:02:50;6.30;99.90
44190;DHT22;29856;52.144;5.430;2023-02-24T10:05:28;6.30;99.90
44190;DHT22;29856;52.144;5.430;2023-02-24T10:07:56;6.40;99.90
44190;DHT22;29856;52.144;5.430;2023-02-24T10:10:25;6.30;99.90
44190;DHT22;29856;52.144;5.430;2023-02-24T10:12:57;6.40;99.90
44190;DHT22;29856;52.144;5.430;2023-02-24T10:15:30;6.40;99.90
44190;DHT22;29856;52.144;5.430;2023-02-24T10:18:12;6.50;99.90
44190;DHT22;29856;52.144;5.430;2023-02-24T10:20:41;6.40;99.90
44190;DHT22;29856;52.144;5.430;2023-02-24T10:23:23;6.40;99.90
44190;DHT22;29856;52.144;5.430;2023-02-24T10:25:54;6.50;99.90
44190;DHT22;29856;52.144;5.430;2023-02-24T10:28:44;6.40;99.90
44190;DHT22;29856;52.144;5.430;2023-02-24T10:31:39;6.40;99.90
44190;DHT22;29856;52.144;5.430;2023-02-24T10:34:11;6.40;99.90
44190;DHT22;29856;52.144;5.430;2023-02-24T10:36:36;6.50;99.90
44190;DHT22;29856;52.144;5.430;2023-02-24T10:39:22;6.50;99.90
44190;DHT22;29856;52.144;5.430;2023-02-24T10:41:56;6.50;99.90
44190;DHT22;29856;52.144;5.430;2023-02-24T10:44:24;6.60;99.90
44190;DHT22;29856;52.144;5.430;2023-02-24T10:47:05;6.60;99.90
44190;DHT22;29856;52.144;5.430;2023-02-24T10:49:37;6.70;99.90
44190;DHT22;29856;52.144;5.430;2023-02-24T10:52:03;6.70;99.90
44190;DHT22;29856;52.144;5.430;2023-02-24T10:54:28;6.70;99.90
44190;DHT22;29856;52.144;5.430;2023-02-24T10:56:54;6.80;99.90
44190;DHT22;29856;52.144;5.430;2023-02-24T10:59:20;6.70;99.90
44190;DHT22;29856;52.144;5.430;2023-02-24T11:01:51;6.80;99.90
44190;DHT22;29856;52.144;5.430;2023-02-24T11:04:17;6.80;99.90
44190;DHT22;29856;52.144;5.430;2023-02-24T11:06:43;6.80;99.90
44190;DHT22;29856;52.144;5.430;2023-02-24T11:09:18;6.90;99.90
44190;DHT22;29856;52.144;5.430;2023-02-24T11:11:45;6.80;99.90
44190;DHT22;29856;52.144;5.430;2023-02-24T11:14:15;6.80;99.90
44190;DHT22;29856;52.144;5.430;2023-02-24T11:16:48;6.90;99.90
44190;DHT22;29856;52.144;5.430;2023-02-24T11:19:14;6.90;99.90
44190;DHT22;29856;52.144;5.430;2023-02-24T11:21:40;6.90;99.90
44190;DHT22;29856;52.144;5.430;2023-02-24T11:24:16;6.90;99.90
44190;DHT22;29856;52.144;5.430;2023-02-24T11:26:44;6.90;99.90
44190;DHT22;29856;52.144;5.430;2023-02-24T11:29:20;7.00;99.90
44190;DHT22;29856;52.144;5.430;2023-02-24T11:34:59;7.10;99.90
44190;DHT22;29856;52.144;5.430;2023-02-24T11:37:39;7.10;99.90
44190;DHT22;29856;52.144;5.430;2023-02-24T11:40:21;7.10;99.90
44190;DHT22;29856;52.144;5.430;2023-02-24T11:42:54;7.20;99.90
44190;DHT22;29856;52.144;5.430;2023-02-24T11:45:41;7.20;99.90
44190;DHT22;29856;52.144;5.430;2023-02-24T11:48:17;7.20;99.90
44190;DHT22;29856;52.144;5.430;2023-02-24T11:50:57;7.30;99.90
44190;DHT22;29856;52.144;5.430;2023-02-24T11:53:29;7.30;99.90
44190;DHT22;29856;52.144;5.430;2023-02-24T11:56:09;7.30;99.90
44190;DHT22;29856;52.144;5.430;2023-02-24T12:01:41;7.40;99.90
44190;DHT22;29856;52.144;5.430;2023-02-24T12:04:33;7.40;99.90
44190;DHT22;29856;52.144;5.430;2023-02-24T12:07:18;7.50;99.90
44190;DHT22;29856;52.144;5.430;2023-02-24T12:10:15;7.50;99.90
44190;DHT22;29856;52.144;5.430;2023-02-24T12:15:32;7.60;99.90
44190;DHT22;29856;52.144;5.430;2023-02-24T12:18:17;7.70;99.90
44190;DHT22;29856;52.144;5.430;2023-02-24T12:20:47;7.90;99.90
44190;DHT22;29856;52.144;5.430;2023-02-24T12:23:19;8.00;99.90
44190;DHT22;29856;52.144;5.430;2023-02-24T12:42:40;8.80;99.90
44190;DHT22;29856;52.144;5.430;2023-02-24T12:53:49;9.20;99.90
44190;DHT22;29856;52.144;5.430;2023-02-24T12:56:24;9.20;99.90
44190;DHT22;29856;52.144;5.430;2023-02-24T12:58:56;9.20;99.90
44190;DHT22;29856;52.144;5.430;2023-02-24T13:01:31;9.30;99.90
44190;DHT22;29856;52.144;5.430;2023-02-24T13:06:55;9.00;99.90
44190;DHT22;29856;52.144;5.430;2023-02-24T13:14:39;9.00;99.90
44190;DHT22;29856;52.144;5.430;2023-02-24T13:19:33;9.30;99.90
44190;DHT22;29856;52.144;5.430;2023-02-24T13:24:41;9.50;99.90
44190;DHT22;29856;52.144;5.430;2023-02-24T13:27:18;9.40;99.90
44190;DHT22;29856;52.144;5.430;2023-02-24T13:29:54;9.40;99.90
44190;DHT22;29856;52.144;5.430;2023-02-24T13:32:31;9.50;99.90
44190;DHT22;29856;52.144;5.430;2023-02-24T13:37:43;9.60;99.90
44190;DHT22;29856;52.144;5.430;2023-02-24T13:45:33;9.40;99.90
44190;DHT22;29856;52.144;5.430;2023-02-24T13:48:20;8.50;99.90
44190;DHT22;29856;52.144;5.430;2023-02-24T14:02:14;8.30;99.90
44190;DHT22;29856;52.144;5.430;2023-02-24T14:04:54;8.10;99.90
44190;DHT22;29856;52.144;5.430;2023-02-24T14:07:26;8.30;99.90
44190;DHT22;29856;52.144;5.430;2023-02-24T14:10:01;8.20;99.90
44190;DHT22;29856;52.144;5.430;2023-02-24T14:12:30;8.50;99.90
44190;DHT22;29856;52.144;5.430;2023-02-24T14:14:56;8.70;99.90
44190;DHT22;29856;52.144;5.430;2023-02-24T14:17:30;8.90;99.90
44190;DHT22;29856;52.144;5.430;2023-02-24T14:22:41;8.70;99.90
44190;DHT22;29856;52.144;5.430;2023-02-24T14:25:08;8.70;99.90
44190;DHT22;29856;52.144;5.430;2023-02-24T14:27:36;8.50;99.90
44190;DHT22;29856;52.144;5.430;2023-02-24T14:30:03;8.40;99.90
44190;DHT22;29856;52.144;5.430;2023-02-24T14:32:31;8.50;99.90
44190;DHT22;29856;52.144;5.430;2023-02-24T14:34:57;8.40;99.90
44190;DHT22;29856;52.144;5.430;2023-02-24T14:37:27;8.40;99.90
44190;DHT22;29856;52.144;5.430;2023-02-24T14:39:59;8.50;99.90
44190;DHT22;29856;52.144;5.430;2023-02-24T14:42:26;8.50;99.90
44190;DHT22;29856;52.144;5.430;2023-02-24T14:44:53;8.40;99.90
44190;DHT22;29856;52.144;5.430;2023-02-24T14:47:22;8.30;99.90
44190;DHT22;29856;52.144;5.430;2023-02-24T14:50:06;8.20;99.90
44190;DHT22;29856;52.144;5.430;2023-02-24T14:52:42;8.30;99.90
44190;DHT22;29856;52.144;5.430;2023-02-24T14:55:19;8.30;99.90
44190;DHT22;29856;52.144;5.430;2023-02-24T14:57:51;8.10;99.90
44190;DHT22;29856;52.144;5.430;2023-02-24T15:00:24;8.20;99.90
44190;DHT22;29856;52.144;5.430;2023-02-24T15:05:27;8.40;99.90
44190;DHT22;29856;52.144;5.430;2023-02-24T15:07:52;8.40;99.90
44190;DHT22;29856;52.144;5.430;2023-02-24T15:10:24;8.40;99.90
44190;DHT22;29856;52.144;5.430;2023-02-24T15:13:11;8.50;99.90
44190;DHT22;29856;52.144;5.430;2023-02-24T15:15:40;8.40;99.90
44190;DHT22;29856;52.144;5.430;2023-02-24T15:18:24;8.50;99.90
44190;DHT22;29856;52.144;5.430;2023-02-24T15:21:04;8.30;99.90
44190;DHT22;29856;52.144;5.430;2023-02-24T15:23:37;8.40;99.90
44190;DHT22;29856;52.144;5.430;2023-02-24T15:26:06;8.40;99.90
44190;DHT22;29856;52.144;5.430;2023-02-24T15:28:34;8.20;99.90
44190;DHT22;29856;52.144;5.430;2023-02-24T15:31:14;8.50;99.90
44190;DHT22;29856;52.144;5.430;2023-02-24T15:33:52;8.70;99.90
44190;DHT22;29856;52.144;5.430;2023-02-24T15:36:21;9.00;99.90
44190;DHT22;29856;52.144;5.430;2023-02-24T15:38:50;8.80;99.90
44190;DHT22;29856;52.144;5.430;2023-02-24T15:41:17;8.50;99.90
44190;DHT22;29856;52.144;5.430;2023-02-24T15:46:28;8.60;99.90
44190;DHT22;29856;52.144;5.430;2023-02-24T15:48:54;8.60;99.90
44190;DHT22;29856;52.144;5.430;2023-02-24T15:51:40;8.50;99.90
44190;DHT22;29856;52.144;5.430;2023-02-24T15:54:18;8.50;99.90
44190;DHT22;29856;52.144;5.430;2023-02-24T15:56:45;8.30;99.90
44190;DHT22;29856;52.144;5.430;2023-02-24T15:59:13;8.10;99.90
44190;DHT22;29856;52.144;5.430;2023-02-24T16:01:39;8.10;99.90
44190;DHT22;29856;52.144;5.430;2023-02-24T16:04:05;8.00;99.90
44190;DHT22;29856;52.144;5.430;2023-02-24T16:06:31;7.90;99.90
44190;DHT22;29856;52.144;5.430;2023-02-24T16:08:56;8.00;99.90
44190;DHT22;29856;52.144;5.430;2023-02-24T16:11:27;8.10;99.90
44190;DHT22;29856;52.144;5.430;2023-02-24T16:13:57;8.10;99.90
44190;DHT22;29856;52.144;5.430;2023-02-24T16:16:24;8.20;99.90
44190;DHT22;29856;52.144;5.430;2023-02-24T16:18:50;8.00;99.90
44190;DHT22;29856;52.144;5.430;2023-02-24T16:21:16;8.00;99.90
44190;DHT22;29856;52.144;5.430;2023-02-24T16:23:42;8.00;99.90
44190;DHT22;29856;52.144;5.430;2023-02-24T16:26:15;8.00;99.90
44190;DHT22;29856;52.144;5.430;2023-02-24T16:28:41;8.00;99.90
44190;DHT22;29856;52.144;5.430;2023-02-24T16:31:06;8.10;99.90
44190;DHT22;29856;52.144;5.430;2023-02-24T16:33:32;7.80;99.90
44190;DHT22;29856;52.144;5.430;2023-02-24T16:35:58;7.70;99.90
44190;DHT22;29856;52.144;5.430;2023-02-24T16:38:24;7.70;99.90
44190;DHT22;29856;52.144;5.430;2023-02-24T16:40:49;7.60;99.90
44190;DHT22;29856;52.144;5.430;2023-02-24T16:43:15;7.50;99.90
44190;DHT22;29856;52.144;5.430;2023-02-24T16:45:42;7.50;99.90
44190;DHT22;29856;52.144;5.430;2023-02-24T16:48:14;7.40;99.90
44190;DHT22;29856;52.144;5.430;2023-02-24T16:50:42;7.40;99.90
44190;DHT22;29856;52.144;5.430;2023-02-24T16:53:11;7.40;99.90
44190;DHT22;29856;52.144;5.430;2023-02-24T16:55:38;7.40;99.90
44190;DHT22;29856;52.144;5.430;2023-02-24T16:58:03;7.40;99.90
44190;DHT22;29856;52.144;5.430;2023-02-24T17:00:29;7.30;99.90
44190;DHT22;29856;52.144;5.430;2023-02-24T17:02:54;7.30;99.90
44190;DHT22;29856;52.144;5.430;2023-02-24T17:05:22;7.20;99.90
44190;DHT22;29856;52.144;5.430;2023-02-24T17:07:49;7.30;99.90
44190;DHT22;29856;52.144;5.430;2023-02-24T17:10:16;7.30;99.90
44190;DHT22;29856;52.144;5.430;2023-02-24T17:12:42;7.10;99.90
44190;DHT22;29856;52.144;5.430;2023-02-24T17:15:15;6.80;99.90
44190;DHT22;29856;52.144;5.430;2023-02-24T17:17:41;6.70;99.90
44190;DHT22;29856;52.144;5.430;2023-02-24T17:20:07;6.70;99.90
44190;DHT22;29856;52.144;5.430;2023-02-24T17:22:34;6.70;99.90
44190;DHT22;29856;52.144;5.430;2023-02-24T17:25:00;6.70;99.90
44190;DHT22;29856;52.144;5.430;2023-02-24T17:27:25;6.60;99.90
44190;DHT22;29856;52.144;5.430;2023-02-24T17:29:51;6.60;99.90
44190;DHT22;29856;52.144;5.430;2023-02-24T17:32:16;6.60;99.90
44190;DHT22;29856;52.144;5.430;2023-02-24T17:34:42;6.60;99.90
44190;DHT22;29856;52.144;5.430;2023-02-24T17:37:07;6.70;99.90
44190;DHT22;29856;52.144;5.430;2023-02-24T17:39:32;6.60;99.90
44190;DHT22;29856;52.144;5.430;2023-02-24T17:41:58;6.50;99.90
44190;DHT22;29856;52.144;5.430;2023-02-24T17:44:23;6.60;99.90
44190;DHT22;29856;52.144;5.430;2023-02-24T17:46:49;6.50;99.90